Time;durP1;ratioP1;P1;durP2;ratioP2;P2;SDS_P1;SDS_P2;PMS_P1;PMS_P2;Temp;Humidity;BMP_temperature;BMP_pressure;BME280_temperature;BME280_humidity;BME280_pressure;Samples;Min_cycle;Max_cycle;Signal;HPM_P1;HPM_P2
2021/12/01 00:00:01;;;;;;;18.77;9.73;;;8.10;99.90;;;;;;5111405;28;20397;-63
2021/12/01 00:02:27;;;;;;;17.42;9.65;;;8.20;99.90;;;;;;5112681;28;20051;-63
2021/12/01 00:04:52;;;;;;;19.67;9.85;;;8.20;99.90;;;;;;5128273;27;20044;-62
2021/12/01 00:07:18;;;;;;;20.05;9.80;;;8.20;99.90;;;;;;5128571;27;20039;-62
2021/12/01 00:09:44;;;;;;;19.05;9.52;;;8.30;99.90;;;;;;5128378;27;20127;-61
2021/12/01 00:12:10;;;;;;;18.50;10.13;;;8.30;99.90;;;;;;5112257;28;20043;-62
2021/12/01 00:14:36;;;;;;;18.50;10.38;;;8.40;99.90;;;;;;5111537;28;20262;-64
2021/12/01 00:17:02;;;;;;;16.75;8.77;;;8.40;99.90;;;;;;5112039;28;20134;-62
2021/12/01 00:19:29;;;;;;;18.23;9.70;;;8.40;99.90;;;;;;5128493;27;20461;-62
2021/12/01 00:21:56;;;;;;;20.25;10.15;;;8.50;99.90;;;;;;5112024;28;20122;-62
2021/12/01 00:24:22;;;;;;;21.27;11.55;;;8.50;99.90;;;;;;5111361;28;20043;-61
2021/12/01 00:26:48;;;;;;;25.42;11.45;;;8.60;99.90;;;;;;5111308;28;20104;-61
2021/12/01 00:29:13;;;;;;;19.33;10.68;;;8.60;99.90;;;;;;5110800;28;20662;-62
2021/12/01 00:31:41;;;;;;;22.95;12.73;;;8.60;99.90;;;;;;5111250;28;20079;-61
2021/12/01 00:34:07;;;;;;;23.02;13.02;;;8.70;99.90;;;;;;5111923;28;20040;-62
2021/12/01 00:36:33;;;;;;;25.77;13.48;;;8.70;99.90;;;;;;5111135;28;20051;-61
2021/12/01 00:38:59;;;;;;;24.52;13.15;;;8.80;99.90;;;;;;5111248;28;20043;-61
2021/12/01 00:41:25;;;;;;;27.70;14.27;;;8.80;99.90;;;;;;5111006;28;20500;-61
2021/12/01 00:43:51;;;;;;;25.40;14.13;;;8.90;99.90;;;;;;5128105;28;20044;-62
2021/12/01 00:46:23;;;;;;;21.27;12.50;;;8.90;99.90;;;;;;5111725;28;20126;-60
2021/12/01 00:48:49;;;;;;;33.25;17.27;;;8.80;99.90;;;;;;5111081;28;20052;-62
2021/12/01 00:51:16;;;;;;;37.95;18.13;;;8.90;99.90;;;;;;5110222;28;20063;-61
2021/12/01 00:53:43;;;;;;;30.60;15.27;;;8.90;99.90;;;;;;5112060;28;20104;-61
2021/12/01 00:56:09;;;;;;;28.77;16.65;;;8.90;99.90;;;;;;5093612;28;20079;-61
2021/12/01 00:58:35;;;;;;;29.73;17.25;;;9.00;99.90;;;;;;5110523;28;20039;-62
2021/12/01 01:01:02;;;;;;;26.00;15.07;;;8.90;99.90;;;;;;5110375;28;20051;-61
2021/12/01 01:03:30;;;;;;;32.42;17.08;;;9.00;99.90;;;;;;5110907;28;20139;-62
2021/12/01 01:05:57;;;;;;;31.27;17.45;;;9.00;99.90;;;;;;5110867;28;20055;-62
2021/12/01 01:08:22;;;;;;;32.42;16.55;;;9.00;99.90;;;;;;5110291;28;20047;-62
2021/12/01 01:16:24;;;;;;;23.05;12.52;;;9.00;99.90;;;;;;5114601;28;20481;-61
2021/12/01 01:18:59;;;;;;;25.33;14.95;;;9.00;99.90;;;;;;5114788;28;20048;-62
2021/12/01 01:21:29;;;;;;;25.98;13.80;;;9.10;99.90;;;;;;5114492;28;20048;-62
2021/12/01 01:23:55;;;;;;;22.83;14.55;;;9.10;99.90;;;;;;5114575;28;20047;-61
2021/12/01 01:26:22;;;;;;;23.48;14.40;;;9.10;99.90;;;;;;5114171;28;20261;-62
2021/12/01 01:28:48;;;;;;;25.60;13.85;;;9.10;99.90;;;;;;5114712;28;20044;-62
2021/12/01 01:31:15;;;;;;;28.25;13.60;;;9.10;99.90;;;;;;5115272;28;20082;-62
2021/12/01 01:33:41;;;;;;;28.40;13.30;;;9.10;99.90;;;;;;5114285;28;20132;-61
2021/12/01 01:36:06;;;;;;;25.73;13.70;;;9.10;99.90;;;;;;5115171;28;20445;-62
2021/12/01 01:38:32;;;;;;;24.30;13.25;;;9.10;99.90;;;;;;5114578;28;20051;-62
2021/12/01 01:41:00;;;;;;;24.27;12.98;;;9.10;99.90;;;;;;5114098;28;20047;-62
2021/12/01 01:43:26;;;;;;;23.33;11.48;;;9.20;99.90;;;;;;5113897;28;20047;-62
2021/12/01 01:45:53;;;;;;;25.45;11.90;;;9.20;99.90;;;;;;5114455;28;20054;-63
2021/12/01 01:48:29;;;;;;;16.77;10.07;;;9.20;99.90;;;;;;5096934;28;20059;-62
2021/12/01 01:50:56;;;;;;;22.52;10.80;;;9.20;99.90;;;;;;5113792;28;20064;-62
2021/12/01 01:53:25;;;;;;;17.58;9.95;;;9.20;99.90;;;;;;5113691;28;20427;-62
2021/12/01 01:55:55;;;;;;;18.10;9.60;;;9.20;99.90;;;;;;5130700;27;20096;-61
2021/12/01 01:58:21;;;;;;;18.63;10.55;;;9.20;99.90;;;;;;5113821;28;20134;-62
2021/12/01 02:01:04;;;;;;;18.73;9.15;;;9.30;99.90;;;;;;5113954;28;20051;-62
2021/12/01 02:03:30;;;;;;;17.25;8.07;;;9.30;99.90;;;;;;5113704;28;20052;-63
2021/12/01 02:05:56;;;;;;;12.52;7.05;;;9.30;99.90;;;;;;5113714;28;20455;-61
2021/12/01 02:08:29;;;;;;;13.90;7.22;;;9.30;99.90;;;;;;5113707;28;20140;-61
2021/12/01 02:10:57;;;;;;;14.30;6.47;;;9.30;99.90;;;;;;5113724;28;20558;-59
2021/12/01 02:13:23;;;;;;;14.57;5.93;;;9.30;99.90;;;;;;5114486;28;20039;-60
2021/12/01 02:15:52;;;;;;;12.60;5.68;;;9.30;99.90;;;;;;5114711;28;20063;-61
2021/12/01 02:18:19;;;;;;;12.23;4.88;;;9.30;99.90;;;;;;5114496;27;20051;-60
2021/12/01 02:21:27;;;;;;;9.93;3.75;;;9.30;99.90;;;;;;5130715;27;20044;-60
2021/12/01 02:23:56;;;;;;;9.65;4.03;;;9.40;99.90;;;;;;5083596;28;20051;-60
2021/12/01 02:26:23;;;;;;;11.85;4.50;;;9.40;99.90;;;;;;5114276;28;20404;-60
2021/12/01 02:28:56;;;;;;;13.85;3.83;;;9.40;99.90;;;;;;5113705;28;20048;-60
2021/12/01 02:31:30;;;;;;;9.02;3.53;;;9.40;99.90;;;;;;5114426;28;20105;-59
2021/12/01 02:33:56;;;;;;;5.75;2.90;;;9.40;99.90;;;;;;5113326;28;20161;-59
2021/12/01 02:36:22;;;;;;;5.80;2.72;;;9.40;99.90;;;;;;5113215;28;20365;-59
2021/12/01 02:38:49;;;;;;;9.05;2.33;;;9.40;99.90;;;;;;5113277;28;20047;-60
2021/12/01 02:41:16;;;;;;;5.05;2.00;;;9.40;99.90;;;;;;5113962;27;20046;-60
2021/12/01 02:43:45;;;;;;;6.90;1.95;;;9.40;99.90;;;;;;5130707;27;20052;-61
2021/12/01 02:46:11;;;;;;;5.00;1.95;;;9.40;99.90;;;;;;5113279;28;20134;-64
2021/12/01 02:48:41;;;;;;;3.65;1.80;;;9.40;99.90;;;;;;5130272;27;20131;-61
2021/12/01 02:51:10;;;;;;;5.72;2.30;;;9.40;99.90;;;;;;5114136;28;20112;-63
2021/12/01 02:53:36;;;;;;;10.07;2.45;;;9.30;99.90;;;;;;5112639;28;20044;-60
2021/12/01 02:56:04;;;;;;;7.13;2.33;;;9.30;99.90;;;;;;5114347;28;20629;-61
2021/12/01 02:58:32;;;;;;;7.90;2.42;;;9.30;99.90;;;;;;5113702;28;20047;-61
2021/12/01 03:01:04;;;;;;;6.00;2.28;;;9.30;99.90;;;;;;5113891;28;20051;-59
2021/12/01 03:03:31;;;;;;;9.60;2.15;;;9.40;99.90;;;;;;5112480;28;20188;-61
2021/12/01 03:05:58;;;;;;;6.60;2.08;;;9.40;99.90;;;;;;5112551;28;20392;-61
2021/12/01 03:08:24;;;;;;;7.72;2.45;;;9.40;99.90;;;;;;5113909;28;20054;-60
2021/12/01 03:10:53;;;;;;;7.78;2.65;;;9.40;99.90;;;;;;5112680;28;20144;-60
2021/12/01 03:13:20;;;;;;;6.78;2.30;;;9.40;99.90;;;;;;5112064;28;20040;-60
2021/12/01 03:15:47;;;;;;;6.53;1.85;;;9.40;99.90;;;;;;5113801;28;20047;-61
2021/12/01 03:18:14;;;;;;;7.07;2.35;;;9.40;99.90;;;;;;5113820;28;20059;-61
2021/12/01 03:20:41;;;;;;;8.75;2.38;;;9.40;99.90;;;;;;5112564;28;20054;-60
2021/12/01 03:23:07;;;;;;;3.97;1.65;;;9.50;99.90;;;;;;5113426;28;20044;-59
2021/12/01 03:25:33;;;;;;;8.60;1.98;;;9.50;99.90;;;;;;5129090;27;20057;-61
2021/12/01 03:28:00;;;;;;;5.05;1.63;;;9.50;99.90;;;;;;5113420;28;20040;-61
2021/12/01 03:30:26;;;;;;;10.20;1.85;;;9.50;99.90;;;;;;5095182;28;20438;-60
2021/12/01 03:32:52;;;;;;;5.95;2.10;;;9.50;99.90;;;;;;5113310;28;20086;-61
2021/12/01 03:35:19;;;;;;;6.65;1.63;;;9.50;99.90;;;;;;5112965;28;20105;-61
2021/12/01 03:37:46;;;;;;;9.15;1.88;;;9.50;99.90;;;;;;5113395;28;20561;-61
2021/12/01 03:40:14;;;;;;;6.38;2.03;;;9.50;99.90;;;;;;5113069;28;20089;-61
2021/12/01 03:42:41;;;;;;;8.05;1.90;;;9.50;99.90;;;;;;5111910;28;20511;-60
2021/12/01 03:45:07;;;;;;;11.20;2.50;;;9.50;99.90;;;;;;5113129;28;20047;-62
2021/12/01 03:47:33;;;;;;;10.55;2.28;;;9.50;99.90;;;;;;5112635;28;20127;-60
2021/12/01 03:49:59;;;;;;;11.75;2.80;;;9.50;99.90;;;;;;5111779;28;20150;-60
2021/12/01 03:52:25;;;;;;;11.75;2.30;;;9.50;99.90;;;;;;5111424;28;20385;-61
2021/12/01 03:54:52;;;;;;;13.20;2.78;;;9.50;99.90;;;;;;5111383;28;20054;-61
2021/12/01 03:57:19;;;;;;;12.57;2.17;;;9.50;99.90;;;;;;5111926;28;20051;-61
2021/12/01 03:59:45;;;;;;;11.27;2.40;;;9.50;99.90;;;;;;5111836;28;20313;-61
2021/12/01 04:02:11;;;;;;;10.45;2.92;;;9.50;99.90;;;;;;5112861;28;20063;-61
2021/12/01 04:04:37;;;;;;;9.90;2.30;;;9.50;99.90;;;;;;5111368;28;20381;-60
2021/12/01 04:07:03;;;;;;;15.70;3.42;;;9.50;99.90;;;;;;5128628;27;20052;-61
2021/12/01 04:09:30;;;;;;;15.10;3.22;;;9.50;99.90;;;;;;5094361;28;20047;-61
2021/12/01 04:11:55;;;;;;;13.65;2.85;;;9.50;99.90;;;;;;5111893;28;20044;-61
2021/12/01 04:14:22;;;;;;;13.70;2.00;;;9.50;99.90;;;;;;5128111;27;20181;-60
2021/12/01 04:16:48;;;;;;;10.82;2.95;;;9.50;99.90;;;;;;5094535;28;20048;-61
2021/12/01 04:19:14;;;;;;;12.73;3.10;;;9.50;99.90;;;;;;5112796;28;20036;-61
2021/12/01 04:21:39;;;;;;;15.98;3.13;;;9.50;99.90;;;;;;5112195;28;20292;-61
2021/12/01 04:24:06;;;;;;;11.50;3.40;;;9.40;99.90;;;;;;5112665;28;20421;-61
2021/12/01 04:26:33;;;;;;;15.95;3.58;;;9.40;99.90;;;;;;5110958;28;20047;-60
2021/12/01 04:29:00;;;;;;;10.48;2.45;;;9.40;99.90;;;;;;5112340;28;20109;-60
2021/12/01 04:31:29;;;;;;;7.00;1.90;;;9.40;99.90;;;;;;5111023;28;20054;-61
2021/12/01 04:33:55;;;;;;;11.90;3.00;;;9.40;99.90;;;;;;5110916;28;20087;-61
2021/12/01 04:36:26;;;;;;;8.40;2.05;;;9.40;99.90;;;;;;5094356;28;20400;-62
2021/12/01 04:38:52;;;;;;;9.45;2.72;;;9.40;99.90;;;;;;5111097;28;20090;-62
2021/12/01 04:41:19;;;;;;;11.88;2.20;;;9.40;99.90;;;;;;5111288;28;20092;-62
2021/12/01 04:43:47;;;;;;;6.28;1.80;;;9.40;99.90;;;;;;5112006;28;20130;-61
2021/12/01 04:46:16;;;;;;;11.35;2.20;;;9.40;99.90;;;;;;5110446;28;20048;-61
2021/12/01 04:48:42;;;;;;;6.28;1.83;;;9.40;99.90;;;;;;5110898;28;20048;-61
2021/12/01 04:51:08;;;;;;;4.65;2.10;;;9.40;99.90;;;;;;5112112;28;20070;-62
2021/12/01 04:53:34;;;;;;;5.30;1.90;;;9.40;99.90;;;;;;5110698;28;20079;-61
2021/12/01 04:56:00;;;;;;;4.68;1.65;;;9.40;99.90;;;;;;5093776;28;20052;-61
2021/12/01 04:58:27;;;;;;;4.63;1.75;;;9.40;99.90;;;;;;5127893;28;20047;-62
2021/12/01 05:00:56;;;;;;;3.22;1.70;;;9.40;99.90;;;;;;5110925;28;20063;-62
2021/12/01 05:03:22;;;;;;;3.88;1.95;;;9.40;99.90;;;;;;5112108;28;20044;-61
2021/12/01 05:05:47;;;;;;;2.75;1.80;;;9.40;99.90;;;;;;5111479;28;20059;-61
2021/12/01 05:08:13;;;;;;;4.72;1.90;;;9.40;99.90;;;;;;5112307;28;20089;-61
2021/12/01 05:10:39;;;;;;;5.97;2.10;;;9.40;99.90;;;;;;5127875;28;20473;-61
2021/12/01 05:13:04;;;;;;;2.90;2.17;;;9.40;99.90;;;;;;5111909;28;20044;-61
2021/12/01 05:15:30;;;;;;;6.20;2.28;;;9.40;99.90;;;;;;5110396;28;20051;-61
2021/12/01 05:17:56;;;;;;;4.75;2.30;;;9.40;99.90;;;;;;5127794;28;20047;-61
2021/12/01 05:20:22;;;;;;;2.30;1.65;;;9.40;99.90;;;;;;5110702;28;20054;-62
2021/12/01 05:22:47;;;;;;;5.13;2.30;;;9.40;99.90;;;;;;5111445;28;20101;-61
2021/12/01 05:25:13;;;;;;;2.40;1.60;;;9.40;99.90;;;;;;5128107;28;20052;-60
2021/12/01 05:27:39;;;;;;;1.42;1.20;;;9.30;99.90;;;;;;5110544;28;20090;-61
2021/12/01 05:30:05;;;;;;;3.28;1.48;;;9.30;99.90;;;;;;5111837;28;20139;-62
2021/12/01 05:32:32;;;;;;;1.75;1.40;;;9.30;99.90;;;;;;5093575;28;20088;-62
2021/12/01 05:34:58;;;;;;;1.90;1.10;;;9.30;99.90;;;;;;5093916;28;20444;-60
2021/12/01 05:37:24;;;;;;;0.90;0.90;;;9.30;99.90;;;;;;5110554;28;20050;-61
2021/12/01 05:39:50;;;;;;;1.75;1.27;;;9.30;99.90;;;;;;5110218;28;20472;-61
2021/12/01 05:42:16;;;;;;;0.63;0.63;;;9.30;99.90;;;;;;5127608;28;20079;-62
2021/12/01 05:44:43;;;;;;;2.00;1.00;;;9.20;99.90;;;;;;5111473;28;20434;-62
2021/12/01 05:47:09;;;;;;;1.55;1.10;;;9.20;99.90;;;;;;5111543;28;20130;-61
2021/12/01 05:49:41;;;;;;;1.73;1.20;;;9.20;99.90;;;;;;5111224;28;20131;-62
2021/12/01 05:52:08;;;;;;;1.02;0.90;;;9.20;99.90;;;;;;5110688;28;20442;-60
2021/12/01 05:54:35;;;;;;;1.90;1.40;;;9.20;99.90;;;;;;5111234;28;20378;-63
2021/12/01 05:57:01;;;;;;;1.98;1.52;;;9.20;99.90;;;;;;5110716;28;20052;-62
2021/12/01 05:59:26;;;;;;;2.45;1.75;;;9.20;99.90;;;;;;5113375;28;20050;-60
2021/12/01 06:01:52;;;;;;;2.50;1.70;;;9.10;99.90;;;;;;5114861;28;20460;-60
2021/12/01 06:04:18;;;;;;;5.38;1.98;;;9.10;99.90;;;;;;5114076;28;20138;-60
2021/12/01 06:06:43;;;;;;;2.85;1.60;;;9.10;99.90;;;;;;5114496;28;20093;-61
2021/12/01 06:09:10;;;;;;;2.90;1.90;;;9.10;99.90;;;;;;5114685;28;20044;-61
2021/12/01 06:11:36;;;;;;;3.42;1.98;;;9.10;99.90;;;;;;5113987;28;20047;-64
2021/12/01 06:14:02;;;;;;;2.65;1.92;;;9.20;99.90;;;;;;5113365;28;20040;-62
2021/12/01 06:16:28;;;;;;;3.20;1.90;;;9.10;99.90;;;;;;5113796;28;20058;-61
2021/12/01 06:18:54;;;;;;;3.60;2.13;;;9.20;99.90;;;;;;5130646;27;20139;-61
2021/12/01 06:21:19;;;;;;;3.72;2.13;;;9.10;99.90;;;;;;5130635;27;20039;-61
2021/12/01 06:23:45;;;;;;;4.10;2.05;;;9.10;99.90;;;;;;5130090;27;20541;-61
2021/12/01 06:26:12;;;;;;;4.65;1.95;;;9.10;99.90;;;;;;5130612;27;20153;-61
2021/12/01 06:28:38;;;;;;;3.08;2.00;;;9.10;99.90;;;;;;5113555;28;20283;-61
2021/12/01 06:31:05;;;;;;;3.67;2.05;;;9.10;99.90;;;;;;5114635;28;20035;-61
2021/12/01 06:33:31;;;;;;;3.70;1.60;;;9.10;99.90;;;;;;5113376;28;20043;-62
2021/12/01 06:35:56;;;;;;;3.97;1.70;;;9.10;99.90;;;;;;5130213;27;20365;-61
2021/12/01 06:38:22;;;;;;;2.65;1.70;;;9.10;99.90;;;;;;5130502;27;20047;-61
2021/12/01 06:40:48;;;;;;;2.72;1.77;;;9.00;99.90;;;;;;5112887;28;20044;-61
2021/12/01 06:43:14;;;;;;;3.33;1.65;;;9.00;99.90;;;;;;5113302;28;20058;-61
2021/12/01 06:45:40;;;;;;;2.25;1.50;;;9.00;99.90;;;;;;5113228;28;20409;-64
2021/12/01 06:48:07;;;;;;;2.20;1.75;;;9.00;99.90;;;;;;5114440;28;20051;-62
2021/12/01 06:50:33;;;;;;;2.40;1.80;;;9.00;99.90;;;;;;5129916;27;20063;-61
2021/12/01 06:52:59;;;;;;;2.60;1.50;;;8.90;99.90;;;;;;5113384;28;20515;-61
2021/12/01 06:55:26;;;;;;;2.33;1.67;;;9.00;99.90;;;;;;5113216;28;20040;-61
2021/12/01 06:57:52;;;;;;;2.55;1.80;;;8.90;99.90;;;;;;5113793;28;20460;-62
2021/12/01 07:00:20;;;;;;;2.75;1.60;;;8.90;99.90;;;;;;5095916;28;20051;-61
2021/12/01 07:02:46;;;;;;;2.15;1.58;;;8.90;99.90;;;;;;5112587;28;20091;-61
2021/12/01 07:05:12;;;;;;;4.30;1.52;;;8.90;99.90;;;;;;5113889;28;20155;-63
2021/12/01 07:07:38;;;;;;;2.40;1.75;;;8.90;99.90;;;;;;5130087;27;20504;-62
2021/12/01 07:10:09;;;;;;;2.33;1.90;;;8.90;99.90;;;;;;5113223;28;20098;-61
2021/12/01 07:12:36;;;;;;;2.95;1.90;;;8.90;99.90;;;;;;5113802;28;20044;-61
2021/12/01 07:15:03;;;;;;;2.97;1.75;;;8.80;99.90;;;;;;5113293;28;20131;-61
2021/12/01 07:17:29;;;;;;;2.45;1.70;;;8.80;99.90;;;;;;5112349;28;20051;-61
2021/12/01 07:19:54;;;;;;;2.88;2.08;;;8.90;99.90;;;;;;5112144;28;20043;-61
2021/12/01 07:22:20;;;;;;;2.75;1.90;;;8.90;99.90;;;;;;5113590;28;20087;-61
2021/12/01 07:24:46;;;;;;;3.13;2.00;;;8.90;99.90;;;;;;5113130;28;20465;-61
2021/12/01 07:27:12;;;;;;;2.22;1.75;;;8.90;99.90;;;;;;5112432;28;20043;-61
2021/12/01 07:29:38;;;;;;;3.78;2.40;;;8.90;99.90;;;;;;5129309;27;20388;-61
2021/12/01 07:32:04;;;;;;;3.83;2.50;;;9.00;99.90;;;;;;5111731;28;20043;-61
2021/12/01 07:34:30;;;;;;;4.55;2.70;;;8.90;99.90;;;;;;5112043;28;20055;-61
2021/12/01 07:36:56;;;;;;;3.30;2.40;;;8.90;99.90;;;;;;5112899;28;20481;-61
2021/12/01 07:39:22;;;;;;;3.53;2.47;;;8.90;99.90;;;;;;5129285;27;20055;-61
2021/12/01 07:41:48;;;;;;;4.13;2.60;;;8.90;99.90;;;;;;5111723;28;20127;-62
2021/12/01 07:44:14;;;;;;;4.25;2.67;;;8.90;99.90;;;;;;5095151;28;20079;-59
2021/12/01 07:46:42;;;;;;;5.32;2.58;;;8.90;99.90;;;;;;5094559;28;20394;-62
2021/12/01 07:49:08;;;;;;;5.90;3.03;;;9.00;99.90;;;;;;5105382;28;20664;-61
2021/12/01 07:51:34;;;;;;;4.35;3.00;;;9.00;99.90;;;;;;5107276;28;20056;-63
2021/12/01 07:53:59;;;;;;;6.05;3.40;;;9.00;99.90;;;;;;5104497;28;20128;-61
2021/12/01 07:56:25;;;;;;;6.25;2.90;;;9.00;99.90;;;;;;5109342;28;20050;-61
2021/12/01 07:58:51;;;;;;;5.47;2.95;;;9.10;99.90;;;;;;5126002;27;20488;-62
2021/12/01 08:01:17;;;;;;;6.63;2.95;;;9.00;99.90;;;;;;5109446;28;20475;-61
2021/12/01 08:03:42;;;;;;;4.65;2.45;;;9.10;99.90;;;;;;5109648;28;20047;-61
2021/12/01 08:06:08;;;;;;;7.20;3.10;;;9.10;99.90;;;;;;5109952;28;20454;-62
2021/12/01 08:08:34;;;;;;;7.32;3.17;;;9.10;99.90;;;;;;5101743;28;20142;-63
2021/12/01 08:11:00;;;;;;;4.80;2.75;;;9.10;99.90;;;;;;5125819;27;20514;-62
2021/12/01 08:13:25;;;;;;;4.90;3.17;;;9.10;99.90;;;;;;5125276;27;20050;-62
2021/12/01 08:15:51;;;;;;;4.15;2.40;;;9.10;99.90;;;;;;5102619;28;20450;-64
2021/12/01 08:18:18;;;;;;;4.85;3.10;;;9.10;99.90;;;;;;5127010;27;20485;-61
2021/12/01 08:20:44;;;;;;;6.10;3.47;;;9.10;99.90;;;;;;5110477;28;20052;-60
2021/12/01 08:23:09;;;;;;;5.00;3.08;;;9.10;99.90;;;;;;5104502;28;20385;-61
2021/12/01 08:25:35;;;;;;;7.43;3.13;;;9.10;99.90;;;;;;5110226;28;20063;-62
2021/12/01 08:28:02;;;;;;;6.32;2.95;;;9.10;99.90;;;;;;5110756;28;20481;-60
2021/12/01 08:30:29;;;;;;;5.65;2.95;;;9.10;99.90;;;;;;5109024;28;20056;-62
2021/12/01 08:32:56;;;;;;;4.85;3.10;;;9.10;99.90;;;;;;5101913;28;20040;-60
2021/12/01 08:35:22;;;;;;;6.15;3.35;;;9.10;99.90;;;;;;5126754;27;20043;-62
2021/12/01 08:37:48;;;;;;;4.60;3.58;;;9.10;99.90;;;;;;5110841;28;20051;-62
2021/12/01 08:40:15;;;;;;;5.38;3.45;;;9.00;99.90;;;;;;5120346;27;20197;-62
2021/12/01 08:42:42;;;;;;;6.00;2.60;;;9.00;99.90;;;;;;5109549;28;20058;-62
2021/12/01 08:45:08;;;;;;;7.53;2.15;;;9.00;99.90;;;;;;5108504;28;20126;-61
2021/12/01 08:47:35;;;;;;;6.38;2.10;;;9.00;99.90;;;;;;5118267;28;20127;-62
2021/12/01 08:50:02;;;;;;;8.73;2.15;;;9.00;99.90;;;;;;5125404;28;20055;-64
2021/12/01 08:52:28;;;;;;;5.47;1.70;;;9.00;99.90;;;;;;5109317;28;20121;-61
2021/12/01 08:54:54;;;;;;;6.20;2.20;;;9.00;99.90;;;;;;5125676;28;20051;-61
2021/12/01 08:57:20;;;;;;;10.18;2.30;;;9.00;99.90;;;;;;5110789;28;20057;-61
2021/12/01 08:59:47;;;;;;;5.20;1.80;;;9.00;99.90;;;;;;5108852;28;20048;-60
2021/12/01 09:02:13;;;;;;;9.57;2.58;;;9.00;99.90;;;;;;5110174;28;20048;-60
2021/12/01 09:04:39;;;;;;;11.65;2.70;;;9.00;99.90;;;;;;5100273;28;20036;-61
2021/12/01 09:07:05;;;;;;;8.88;1.70;;;9.00;99.90;;;;;;5110256;28;20598;-60
2021/12/01 09:09:31;;;;;;;8.73;1.88;;;9.00;99.90;;;;;;5110457;28;20043;-60
2021/12/01 09:11:57;;;;;;;10.30;2.33;;;9.00;99.90;;;;;;5126089;28;20036;-61
2021/12/01 09:14:23;;;;;;;5.97;2.15;;;9.00;99.90;;;;;;5110229;28;20530;-62
2021/12/01 09:16:51;;;;;;;10.95;2.20;;;9.00;99.90;;;;;;5109417;28;20397;-60
2021/12/01 09:19:17;;;;;;;7.72;1.95;;;8.90;99.90;;;;;;5126846;28;20044;-59
2021/12/01 09:21:43;;;;;;;5.30;1.40;;;8.90;99.90;;;;;;5111299;28;20096;-60
2021/12/01 09:24:10;;;;;;;6.85;1.60;;;8.90;99.90;;;;;;5110887;28;20126;-62
2021/12/01 09:26:36;;;;;;;6.25;1.30;;;8.90;99.90;;;;;;5111759;28;20541;-61
2021/12/01 09:29:03;;;;;;;7.82;2.22;;;8.90;99.90;;;;;;5110411;28;20138;-60
2021/12/01 09:31:29;;;;;;;9.98;2.13;;;8.90;99.90;;;;;;5093764;28;20052;-60
2021/12/01 09:33:55;;;;;;;9.60;2.30;;;8.80;99.90;;;;;;5114435;28;20489;-59
2021/12/01 09:36:21;;;;;;;7.22;1.85;;;8.80;99.90;;;;;;5115258;28;20048;-62
2021/12/01 09:38:47;;;;;;;13.88;2.15;;;8.80;99.90;;;;;;5115878;28;20055;-60
2021/12/01 09:41:14;;;;;;;11.77;2.20;;;8.80;99.90;;;;;;5114332;28;20465;-60
2021/12/01 09:43:41;;;;;;;11.50;2.05;;;8.80;99.90;;;;;;5115598;28;20097;-60
2021/12/01 09:46:09;;;;;;;8.30;2.20;;;8.80;99.90;;;;;;5115327;28;20450;-60
2021/12/01 09:48:37;;;;;;;12.55;1.98;;;8.80;99.90;;;;;;5115409;28;20458;-62
2021/12/01 09:51:03;;;;;;;9.85;1.88;;;8.80;99.90;;;;;;5114730;28;20067;-59
2021/12/01 09:53:30;;;;;;;5.07;1.35;;;8.80;99.90;;;;;;5115275;28;20048;-60
2021/12/01 09:55:56;;;;;;;10.20;2.53;;;8.90;99.90;;;;;;5115206;28;20043;-61
2021/12/01 09:58:25;;;;;;;6.25;1.83;;;8.80;99.90;;;;;;5114636;28;20296;-61
2021/12/01 10:00:56;;;;;;;9.35;2.17;;;8.80;99.90;;;;;;5114098;28;20051;-60
2021/12/01 10:03:22;;;;;;;8.15;1.90;;;8.80;99.90;;;;;;5114751;28;20044;-61
2021/12/01 10:06:03;;;;;;;8.57;1.83;;;8.80;99.90;;;;;;5115158;28;20097;-60
2021/12/01 10:08:34;;;;;;;5.95;1.52;;;8.80;99.90;;;;;;5113957;28;20045;-60
2021/12/01 10:11:03;;;;;;;11.95;2.35;;;8.80;99.90;;;;;;5114995;28;20139;-60
2021/12/01 10:13:32;;;;;;;10.35;2.28;;;8.90;99.90;;;;;;5113623;28;20048;-61
2021/12/01 10:16:01;;;;;;;10.52;2.30;;;9.00;99.90;;;;;;5114787;28;20044;-60
2021/12/01 10:18:29;;;;;;;10.40;2.53;;;9.10;99.90;;;;;;5114467;28;20135;-60
2021/12/01 10:21:06;;;;;;;13.23;3.38;;;9.20;99.90;;;;;;5114838;28;20052;-60
2021/12/01 10:23:33;;;;;;;19.52;3.55;;;9.10;99.90;;;;;;5114521;28;20043;-60
2021/12/01 10:26:07;;;;;;;13.00;2.50;;;9.20;99.90;;;;;;5130713;27;20074;-61
2021/12/01 10:28:36;;;;;;;11.55;2.08;;;9.10;99.90;;;;;;5113541;28;20116;-59
2021/12/01 10:31:03;;;;;;;13.25;3.30;;;9.10;99.90;;;;;;5114456;28;20404;-60
2021/12/01 10:33:30;;;;;;;15.82;3.15;;;9.10;99.90;;;;;;5114215;28;20047;-60
2021/12/01 10:36:01;;;;;;;11.68;2.42;;;9.10;99.90;;;;;;5114687;28;20047;-59
2021/12/01 10:38:32;;;;;;;9.63;2.28;;;9.10;99.90;;;;;;5114246;28;20051;-60
2021/12/01 10:41:04;;;;;;;8.10;2.15;;;9.00;99.90;;;;;;5113604;28;20118;-60
2021/12/01 10:43:42;;;;;;;13.55;3.40;;;9.00;99.90;;;;;;5095660;28;20044;-60
2021/12/01 10:46:11;;;;;;;12.02;2.30;;;9.00;99.90;;;;;;5113324;28;20047;-63
2021/12/01 10:48:40;;;;;;;14.93;2.70;;;8.90;99.90;;;;;;5114077;28;20135;-60
2021/12/01 10:51:11;;;;;;;10.48;2.20;;;8.90;99.90;;;;;;5113397;28;20052;-59
2021/12/01 10:53:37;;;;;;;16.13;3.10;;;8.90;99.90;;;;;;5110797;28;20043;-60
2021/12/01 10:56:06;;;;;;;12.32;3.20;;;8.90;99.90;;;;;;5108848;28;20051;-60
2021/12/01 10:58:38;;;;;;;12.80;2.72;;;9.00;99.90;;;;;;5113526;28;20050;-60
2021/12/01 11:01:06;;;;;;;14.63;3.17;;;9.00;99.90;;;;;;5112630;28;20101;-62
2021/12/01 11:03:35;;;;;;;11.27;2.25;;;9.10;99.90;;;;;;5113461;28;20100;-61
2021/12/01 11:06:13;;;;;;;10.57;2.25;;;9.10;99.90;;;;;;5114091;28;20062;-60
2021/12/01 11:08:42;;;;;;;12.52;2.70;;;9.20;99.90;;;;;;5104050;28;20097;-60
2021/12/01 11:11:14;;;;;;;8.23;2.30;;;9.20;99.90;;;;;;5112893;28;20142;-60
2021/12/01 11:13:44;;;;;;;10.05;2.35;;;9.20;99.90;;;;;;5112923;28;20063;-61
2021/12/01 11:16:11;;;;;;;10.43;2.22;;;9.20;99.90;;;;;;5109481;28;20043;-60
2021/12/01 11:18:43;;;;;;;18.00;2.85;;;9.10;99.90;;;;;;5112941;28;20051;-60
2021/12/01 11:21:27;;;;;;;10.40;2.10;;;9.10;99.90;;;;;;5112506;28;20382;-59
2021/12/01 11:23:54;;;;;;;10.25;2.47;;;9.10;99.90;;;;;;5105246;28;20468;-60
2021/12/01 11:26:26;;;;;;;16.45;3.25;;;9.10;99.90;;;;;;5111377;28;20039;-59
2021/12/01 11:28:58;;;;;;;15.50;2.92;;;9.10;99.90;;;;;;5111547;28;20145;-60
2021/12/01 11:31:29;;;;;;;10.35;2.80;;;9.10;99.90;;;;;;5112989;28;20075;-60
2021/12/01 11:34:01;;;;;;;14.40;2.78;;;9.10;99.90;;;;;;5107443;28;20039;-60
2021/12/01 11:36:33;;;;;;;17.83;3.33;;;9.20;99.90;;;;;;5107633;28;20050;-60
2021/12/01 11:39:03;;;;;;;20.63;3.85;;;9.10;99.90;;;;;;5112003;28;20047;-60
2021/12/01 11:41:31;;;;;;;15.98;3.80;;;9.10;99.90;;;;;;5113058;28;20035;-61
2021/12/01 11:43:58;;;;;;;19.48;3.95;;;9.00;99.90;;;;;;5111569;28;20051;-60
2021/12/01 11:46:24;;;;;;;22.05;3.38;;;8.80;99.90;;;;;;5111770;28;20122;-60
2021/12/01 11:48:55;;;;;;;16.75;3.75;;;8.70;99.90;;;;;;5113079;28;20127;-60
2021/12/01 11:51:25;;;;;;;23.40;4.20;;;8.60;99.90;;;;;;5112366;28;20124;-59
2021/12/01 11:53:55;;;;;;;19.55;3.42;;;8.60;99.90;;;;;;5129051;27;20108;-60
2021/12/01 11:56:29;;;;;;;15.38;3.55;;;8.50;99.90;;;;;;5111336;28;20469;-60
2021/12/01 11:59:05;;;;;;;26.67;2.93;;;8.40;99.90;;;;;;5112695;28;20071;-60
2021/12/01 12:01:33;;;;;;;20.58;3.80;;;8.40;99.90;;;;;;5112444;28;20040;-60
2021/12/01 12:04:01;;;;;;;22.88;4.03;;;8.40;99.90;;;;;;5094996;28;20388;-59
2021/12/01 12:06:30;;;;;;;14.98;3.22;;;8.30;99.90;;;;;;5112607;28;20051;-59
2021/12/01 12:09:06;;;;;;;17.52;3.35;;;8.30;99.90;;;;;;5111653;28;20039;-60
2021/12/01 12:11:42;;;;;;;16.20;4.15;;;8.30;99.90;;;;;;5112545;28;20361;-60
2021/12/01 12:14:25;;;;;;;15.15;3.30;;;8.40;99.90;;;;;;5111653;28;20081;-60
2021/12/01 12:17:07;;;;;;;18.77;3.70;;;8.40;99.90;;;;;;5128627;27;20370;-60
2021/12/01 12:19:49;;;;;;;14.57;2.67;;;8.40;99.90;;;;;;5112158;28;20035;-60
2021/12/01 12:22:20;;;;;;;13.65;3.65;;;8.40;99.90;;;;;;5128713;27;20108;-61
2021/12/01 12:24:53;;;;;;;16.70;3.00;;;8.40;99.90;;;;;;5111500;28;20138;-59
2021/12/01 12:27:45;;;;;;;16.92;3.28;;;8.40;99.90;;;;;;5112664;28;20126;-60
2021/12/01 12:30:35;;;;;;;19.50;2.72;;;8.40;99.90;;;;;;5112494;28;20050;-59
2021/12/01 12:33:18;;;;;;;22.67;5.78;;;8.40;99.90;;;;;;5112084;28;20468;-59
2021/12/01 12:35:46;;;;;;;12.55;2.85;;;8.30;99.90;;;;;;5112244;28;20040;-60
2021/12/01 12:38:14;;;;;;;13.60;2.90;;;8.30;99.90;;;;;;5112475;28;20039;-59
2021/12/01 12:40:40;;;;;;;8.38;2.08;;;8.30;99.90;;;;;;5111119;28;20047;-60
2021/12/01 12:43:12;;;;;;;11.45;2.63;;;8.30;99.90;;;;;;5112415;28;20036;-60
2021/12/01 12:45:42;;;;;;;11.60;2.92;;;8.20;99.90;;;;;;5112233;28;20044;-61
2021/12/01 12:48:31;;;;;;;16.77;4.03;;;8.00;99.90;;;;;;5112313;28;20079;-60
2021/12/01 12:51:26;;;;;;;16.15;3.30;;;7.90;99.90;;;;;;5112177;28;20051;-60
2021/12/01 12:54:04;;;;;;;14.45;3.08;;;7.90;99.90;;;;;;5111224;28;20048;-60
2021/12/01 12:56:37;;;;;;;12.30;3.05;;;7.90;99.90;;;;;;5111968;28;20092;-59
2021/12/01 12:59:26;;;;;;;10.73;2.55;;;7.90;99.90;;;;;;5111215;28;20052;-59